sensor_id;sensor_type;location;lat;lon;timestamp;temperature;humidity
69084;SHT31;56185;48.526;9.044;2024-01-15T00:00:28;-1.40;74.11
69084;SHT31;56185;48.526;9.044;2024-01-15T00:02:53;-1.34;74.17
69084;SHT31;56185;48.526;9.044;2024-01-15T00:05:18;-1.43;74.33
69084;SHT31;56185;48.526;9.044;2024-01-15T00:07:44;-1.44;75.01
69084;SHT31;56185;48.526;9.044;2024-01-15T00:10:09;-1.34;74.64
69084;SHT31;56185;48.526;9.044;2024-01-15T00:12:37;-1.37;74.36
69084;SHT31;56185;48.526;9.044;2024-01-15T00:15:03;-1.39;74.52
69084;SHT31;56185;48.526;9.044;2024-01-15T00:17:28;-1.34;74.18
69084;SHT31;56185;48.526;9.044;2024-01-15T00:19:54;-1.27;74.00
69084;SHT31;56185;48.526;9.044;2024-01-15T00:22:19;-1.27;73.80
69084;SHT31;56185;48.526;9.044;2024-01-15T00:24:44;-1.24;74.06
69084;SHT31;56185;48.526;9.044;2024-01-15T00:27:12;-1.29;74.58
69084;SHT31;56185;48.526;9.044;2024-01-15T00:29:37;-1.33;74.57
69084;SHT31;56185;48.526;9.044;2024-01-15T00:32:03;-1.33;74.26
69084;SHT31;56185;48.526;9.044;2024-01-15T00:34:28;-1.20;74.17
69084;SHT31;56185;48.526;9.044;2024-01-15T00:36:53;-1.26;74.22
69084;SHT31;56185;48.526;9.044;2024-01-15T00:39:19;-1.14;74.22
69084;SHT31;56185;48.526;9.044;2024-01-15T00:41:44;-1.29;74.31
69084;SHT31;56185;48.526;9.044;2024-01-15T00:44:09;-1.27;74.31
69084;SHT31;56185;48.526;9.044;2024-01-15T00:46:44;-1.17;74.33
69084;SHT31;56185;48.526;9.044;2024-01-15T00:49:10;-1.10;73.96
69084;SHT31;56185;48.526;9.044;2024-01-15T00:51:35;-1.04;74.02
69084;SHT31;56185;48.526;9.044;2024-01-15T00:54:00;-1.14;74.58
69084;SHT31;56185;48.526;9.044;2024-01-15T00:56:25;-1.09;74.65
69084;SHT31;56185;48.526;9.044;2024-01-15T00:58:51;-1.02;74.57
69084;SHT31;56185;48.526;9.044;2024-01-15T01:01:16;-1.00;74.54
69084;SHT31;56185;48.526;9.044;2024-01-15T01:03:41;-1.03;75.05
69084;SHT31;56185;48.526;9.044;2024-01-15T01:06:06;-1.06;75.01
69084;SHT31;56185;48.526;9.044;2024-01-15T01:08:31;-1.04;74.95
69084;SHT31;56185;48.526;9.044;2024-01-15T01:10:57;-1.09;75.30
69084;SHT31;56185;48.526;9.044;2024-01-15T01:13:22;-0.97;74.95
69084;SHT31;56185;48.526;9.044;2024-01-15T01:15:47;-1.03;75.32
69084;SHT31;56185;48.526;9.044;2024-01-15T01:18:12;-1.03;75.21
69084;SHT31;56185;48.526;9.044;2024-01-15T01:20:38;-1.09;75.17
69084;SHT31;56185;48.526;9.044;2024-01-15T01:23:03;-0.99;74.82
69084;SHT31;56185;48.526;9.044;2024-01-15T01:25:28;-0.97;75.02
69084;SHT31;56185;48.526;9.044;2024-01-15T01:27:53;-1.00;75.12
69084;SHT31;56185;48.526;9.044;2024-01-15T01:30:19;-1.10;74.97
69084;SHT31;56185;48.526;9.044;2024-01-15T01:32:44;-0.99;75.23
69084;SHT31;56185;48.526;9.044;2024-01-15T01:35:09;-0.99;75.21
69084;SHT31;56185;48.526;9.044;2024-01-15T01:37:35;-0.89;74.80
69084;SHT31;56185;48.526;9.044;2024-01-15T01:40:00;-0.86;74.97
69084;SHT31;56185;48.526;9.044;2024-01-15T01:42:25;-0.85;74.65
69084;SHT31;56185;48.526;9.044;2024-01-15T01:44:50;-0.95;75.12
69084;SHT31;56185;48.526;9.044;2024-01-15T01:47:16;-0.88;74.69
69084;SHT31;56185;48.526;9.044;2024-01-15T01:49:41;-0.85;74.71
69084;SHT31;56185;48.526;9.044;2024-01-15T01:52:08;-0.92;75.00
69084;SHT31;56185;48.526;9.044;2024-01-15T01:54:35;-1.00;75.27
69084;SHT31;56185;48.526;9.044;2024-01-15T01:57:02;-0.92;75.26
69084;SHT31;56185;48.526;9.044;2024-01-15T01:59:28;-0.89;75.14
69084;SHT31;56185;48.526;9.044;2024-01-15T02:01:54;-0.86;75.28
69084;SHT31;56185;48.526;9.044;2024-01-15T02:04:19;-0.91;75.58
69084;SHT31;56185;48.526;9.044;2024-01-15T02:06:45;-0.83;75.39
69084;SHT31;56185;48.526;9.044;2024-01-15T02:09:11;-0.82;75.34
69084;SHT31;56185;48.526;9.044;2024-01-15T02:11:36;-0.86;75.50
69084;SHT31;56185;48.526;9.044;2024-01-15T02:14:02;-0.83;75.31
69084;SHT31;56185;48.526;9.044;2024-01-15T02:16:28;-0.82;75.76
69084;SHT31;56185;48.526;9.044;2024-01-15T02:18:53;-0.85;75.40
69084;SHT31;56185;48.526;9.044;2024-01-15T02:21:18;-0.86;75.48
69084;SHT31;56185;48.526;9.044;2024-01-15T02:23:44;-0.91;75.77
69084;SHT31;56185;48.526;9.044;2024-01-15T02:26:09;-0.89;75.52
69084;SHT31;56185;48.526;9.044;2024-01-15T02:28:34;-0.95;75.89
69084;SHT31;56185;48.526;9.044;2024-01-15T02:31:00;-0.93;75.95
69084;SHT31;56185;48.526;9.044;2024-01-15T02:33:25;-0.92;75.92
69084;SHT31;56185;48.526;9.044;2024-01-15T02:35:50;-0.93;76.14
69084;SHT31;56185;48.526;9.044;2024-01-15T02:38:16;-0.97;76.14
69084;SHT31;56185;48.526;9.044;2024-01-15T02:40:42;-1.03;76.09
69084;SHT31;56185;48.526;9.044;2024-01-15T02:43:08;-1.07;76.49
69084;SHT31;56185;48.526;9.044;2024-01-15T02:45:33;-1.04;76.67
69084;SHT31;56185;48.526;9.044;2024-01-15T02:47:58;-1.12;76.89
69084;SHT31;56185;48.526;9.044;2024-01-15T02:50:23;-1.23;77.08
69084;SHT31;56185;48.526;9.044;2024-01-15T02:52:49;-1.10;76.97
69084;SHT31;56185;48.526;9.044;2024-01-15T02:55:14;-1.17;77.49
69084;SHT31;56185;48.526;9.044;2024-01-15T02:57:39;-1.14;77.04
69084;SHT31;56185;48.526;9.044;2024-01-15T03:00:05;-1.20;77.47
69084;SHT31;56185;48.526;9.044;2024-01-15T03:02:30;-1.24;77.91
69084;SHT31;56185;48.526;9.044;2024-01-15T03:04:55;-1.20;78.00
69084;SHT31;56185;48.526;9.044;2024-01-15T03:07:21;-1.29;77.99
69084;SHT31;56185;48.526;9.044;2024-01-15T03:09:46;-1.20;78.07
69084;SHT31;56185;48.526;9.044;2024-01-15T03:12:11;-1.27;78.07
69084;SHT31;56185;48.526;9.044;2024-01-15T03:14:36;-1.20;78.24
69084;SHT31;56185;48.526;9.044;2024-01-15T03:17:02;-1.20;78.32
69084;SHT31;56185;48.526;9.044;2024-01-15T03:19:27;-1.17;78.26
69084;SHT31;56185;48.526;9.044;2024-01-15T03:21:52;-1.06;77.96
69084;SHT31;56185;48.526;9.044;2024-01-15T03:24:18;-1.14;78.01
69084;SHT31;56185;48.526;9.044;2024-01-15T03:26:43;-1.06;78.30
69084;SHT31;56185;48.526;9.044;2024-01-15T03:29:08;-0.95;78.04
69084;SHT31;56185;48.526;9.044;2024-01-15T03:31:34;-1.00;78.48
69084;SHT31;56185;48.526;9.044;2024-01-15T03:34:00;-0.99;77.99
69084;SHT31;56185;48.526;9.044;2024-01-15T03:36:25;-1.02;78.20
69084;SHT31;56185;48.526;9.044;2024-01-15T03:38:50;-1.02;78.02
69084;SHT31;56185;48.526;9.044;2024-01-15T03:41:16;-0.85;77.87
69084;SHT31;56185;48.526;9.044;2024-01-15T03:43:41;-0.81;77.50
69084;SHT31;56185;48.526;9.044;2024-01-15T03:46:07;-0.76;77.63
69084;SHT31;56185;48.526;9.044;2024-01-15T03:48:32;-0.81;78.08
69084;SHT31;56185;48.526;9.044;2024-01-15T03:50:57;-0.91;78.23
69084;SHT31;56185;48.526;9.044;2024-01-15T03:53:22;-0.91;78.35
69084;SHT31;56185;48.526;9.044;2024-01-15T03:55:49;-0.76;78.14
69084;SHT31;56185;48.526;9.044;2024-01-15T03:58:14;-0.79;78.09
69084;SHT31;56185;48.526;9.044;2024-01-15T04:00:39;-0.76;78.07
69084;SHT31;56185;48.526;9.044;2024-01-15T04:03:04;-0.82;78.62
69084;SHT31;56185;48.526;9.044;2024-01-15T04:05:30;-0.78;78.47
69084;SHT31;56185;48.526;9.044;2024-01-15T04:07:55;-0.71;78.23
69084;SHT31;56185;48.526;9.044;2024-01-15T04:10:20;-0.71;78.32
69084;SHT31;56185;48.526;9.044;2024-01-15T04:12:45;-0.86;78.93
69084;SHT31;56185;48.526;9.044;2024-01-15T04:15:11;-0.75;78.72
69084;SHT31;56185;48.526;9.044;2024-01-15T04:17:36;-0.78;78.55
69084;SHT31;56185;48.526;9.044;2024-01-15T04:20:01;-0.72;78.61
69084;SHT31;56185;48.526;9.044;2024-01-15T04:22:26;-0.68;78.65
69084;SHT31;56185;48.526;9.044;2024-01-15T04:24:52;-0.72;79.02
69084;SHT31;56185;48.526;9.044;2024-01-15T04:27:17;-0.66;78.82
69084;SHT31;56185;48.526;9.044;2024-01-15T04:29:42;-0.78;78.96
69084;SHT31;56185;48.526;9.044;2024-01-15T04:32:07;-0.68;78.67
69084;SHT31;56185;48.526;9.044;2024-01-15T04:34:33;-0.72;79.06
69084;SHT31;56185;48.526;9.044;2024-01-15T04:36:58;-0.66;79.00
69084;SHT31;56185;48.526;9.044;2024-01-15T04:39:23;-0.65;78.89
69084;SHT31;56185;48.526;9.044;2024-01-15T04:41:48;-0.62;79.05
69084;SHT31;56185;48.526;9.044;2024-01-15T04:44:14;-0.62;78.88
69084;SHT31;56185;48.526;9.044;2024-01-15T04:46:39;-0.54;78.90
69084;SHT31;56185;48.526;9.044;2024-01-15T04:49:06;-0.61;79.27
69084;SHT31;56185;48.526;9.044;2024-01-15T04:51:32;-0.65;79.29
69084;SHT31;56185;48.526;9.044;2024-01-15T04:53:57;-0.64;79.50
69084;SHT31;56185;48.526;9.044;2024-01-15T04:56:22;-0.62;79.28
69084;SHT31;56185;48.526;9.044;2024-01-15T04:58:47;-0.71;79.75
69084;SHT31;56185;48.526;9.044;2024-01-15T05:01:12;-0.64;79.53
69084;SHT31;56185;48.526;9.044;2024-01-15T05:03:38;-0.65;79.13
69084;SHT31;56185;48.526;9.044;2024-01-15T05:06:03;-0.68;79.41
69084;SHT31;56185;48.526;9.044;2024-01-15T05:08:28;-0.62;79.43
69084;SHT31;56185;48.526;9.044;2024-01-15T05:10:54;-0.64;79.54
69084;SHT31;56185;48.526;9.044;2024-01-15T05:13:19;-0.64;79.60
69084;SHT31;56185;48.526;9.044;2024-01-15T05:15:44;-0.65;80.07
69084;SHT31;56185;48.526;9.044;2024-01-15T05:18:09;-0.72;80.25
69084;SHT31;56185;48.526;9.044;2024-01-15T05:20:35;-0.66;80.28
69084;SHT31;56185;48.526;9.044;2024-01-15T05:23:00;-0.58;80.06
69084;SHT31;56185;48.526;9.044;2024-01-15T05:25:25;-0.60;80.19
69084;SHT31;56185;48.526;9.044;2024-01-15T05:27:50;-0.61;80.60
69084;SHT31;56185;48.526;9.044;2024-01-15T05:30:16;-0.54;80.42
69084;SHT31;56185;48.526;9.044;2024-01-15T05:32:41;-0.51;80.47
69084;SHT31;56185;48.526;9.044;2024-01-15T05:35:06;-0.60;80.54
69084;SHT31;56185;48.526;9.044;2024-01-15T05:37:32;-0.54;80.77
69084;SHT31;56185;48.526;9.044;2024-01-15T05:39:57;-0.54;80.53
69084;SHT31;56185;48.526;9.044;2024-01-15T05:42:22;-0.54;80.77
69084;SHT31;56185;48.526;9.044;2024-01-15T05:44:48;-0.51;80.61
69084;SHT31;56185;48.526;9.044;2024-01-15T05:47:13;-0.69;81.11
69084;SHT31;56185;48.526;9.044;2024-01-15T05:49:38;-0.65;81.23
69084;SHT31;56185;48.526;9.044;2024-01-15T05:52:04;-0.51;80.48
69084;SHT31;56185;48.526;9.044;2024-01-15T05:54:29;-0.44;80.21
69084;SHT31;56185;48.526;9.044;2024-01-15T05:56:54;-0.58;80.48
69084;SHT31;56185;48.526;9.044;2024-01-15T05:59:19;-0.42;80.27
69084;SHT31;56185;48.526;9.044;2024-01-15T06:01:45;-0.28;80.00
69084;SHT31;56185;48.526;9.044;2024-01-15T06:04:10;-0.28;79.91
69084;SHT31;56185;48.526;9.044;2024-01-15T06:06:35;-0.32;80.06
69084;SHT31;56185;48.526;9.044;2024-01-15T06:09:00;-0.47;80.43
69084;SHT31;56185;48.526;9.044;2024-01-15T06:11:32;-0.30;80.02
69084;SHT31;56185;48.526;9.044;2024-01-15T06:13:57;-0.37;80.20
69084;SHT31;56185;48.526;9.044;2024-01-15T06:16:23;-0.37;80.28
69084;SHT31;56185;48.526;9.044;2024-01-15T06:18:49;-0.40;80.29
69084;SHT31;56185;48.526;9.044;2024-01-15T06:21:14;-0.32;79.64
69084;SHT31;56185;48.526;9.044;2024-01-15T06:23:40;-0.34;79.73
69084;SHT31;56185;48.526;9.044;2024-01-15T06:26:05;-0.24;79.28
69084;SHT31;56185;48.526;9.044;2024-01-15T06:28:31;-0.40;79.52
69084;SHT31;56185;48.526;9.044;2024-01-15T06:30:57;-0.23;79.73
69084;SHT31;56185;48.526;9.044;2024-01-15T06:33:22;-0.27;79.48
69084;SHT31;56185;48.526;9.044;2024-01-15T06:35:47;-0.23;79.13
69084;SHT31;56185;48.526;9.044;2024-01-15T06:38:13;-0.21;79.04
69084;SHT31;56185;48.526;9.044;2024-01-15T06:40:38;-0.27;79.33
69084;SHT31;56185;48.526;9.044;2024-01-15T06:43:03;-0.23;79.29
69084;SHT31;56185;48.526;9.044;2024-01-15T06:45:28;-0.24;78.73
69084;SHT31;56185;48.526;9.044;2024-01-15T06:47:54;-0.44;78.85
69084;SHT31;56185;48.526;9.044;2024-01-15T06:50:19;-0.37;78.67
69084;SHT31;56185;48.526;9.044;2024-01-15T06:52:44;-0.40;78.84
69084;SHT31;56185;48.526;9.044;2024-01-15T06:55:09;-0.35;78.34
69084;SHT31;56185;48.526;9.044;2024-01-15T06:57:35;-0.21;78.23
69084;SHT31;56185;48.526;9.044;2024-01-15T07:00:00;-0.17;78.23
69084;SHT31;56185;48.526;9.044;2024-01-15T07:02:25;-0.11;77.99
69084;SHT31;56185;48.526;9.044;2024-01-15T07:04:50;-0.34;78.14
69084;SHT31;56185;48.526;9.044;2024-01-15T07:07:16;-0.18;77.41
69084;SHT31;56185;48.526;9.044;2024-01-15T07:09:41;-0.11;77.46
69084;SHT31;56185;48.526;9.044;2024-01-15T07:12:06;-0.06;77.32
69084;SHT31;56185;48.526;9.044;2024-01-15T07:14:31;-0.17;77.08
69084;SHT31;56185;48.526;9.044;2024-01-15T07:16:57;-0.09;77.08
69084;SHT31;56185;48.526;9.044;2024-01-15T07:19:22;-0.27;76.93
69084;SHT31;56185;48.526;9.044;2024-01-15T07:21:47;-0.18;76.83
69084;SHT31;56185;48.526;9.044;2024-01-15T07:24:12;-0.24;76.96
69084;SHT31;56185;48.526;9.044;2024-01-15T07:26:37;-0.21;76.83
69084;SHT31;56185;48.526;9.044;2024-01-15T07:29:03;-0.25;76.63
69084;SHT31;56185;48.526;9.044;2024-01-15T07:31:28;-0.23;76.66
69084;SHT31;56185;48.526;9.044;2024-01-15T07:33:53;-0.30;76.60
69084;SHT31;56185;48.526;9.044;2024-01-15T07:36:19;-0.31;76.68
69084;SHT31;56185;48.526;9.044;2024-01-15T07:38:45;-0.18;76.34
69084;SHT31;56185;48.526;9.044;2024-01-15T07:41:10;-0.30;76.15
69084;SHT31;56185;48.526;9.044;2024-01-15T07:43:35;-0.31;76.23
69084;SHT31;56185;48.526;9.044;2024-01-15T07:46:00;-0.11;75.74
69084;SHT31;56185;48.526;9.044;2024-01-15T07:48:27;-0.31;75.97
69084;SHT31;56185;48.526;9.044;2024-01-15T07:50:52;-0.20;75.62
69084;SHT31;56185;48.526;9.044;2024-01-15T07:53:17;-0.28;75.65
69084;SHT31;56185;48.526;9.044;2024-01-15T07:55:42;-0.20;75.25
69084;SHT31;56185;48.526;9.044;2024-01-15T07:58:07;-0.17;75.46
69084;SHT31;56185;48.526;9.044;2024-01-15T08:00:33;-0.10;74.93
69084;SHT31;56185;48.526;9.044;2024-01-15T08:02:58;0.00;74.52
69084;SHT31;56185;48.526;9.044;2024-01-15T08:05:26;0.06;74.05
69084;SHT31;56185;48.526;9.044;2024-01-15T08:07:51;0.11;74.28
69084;SHT31;56185;48.526;9.044;2024-01-15T08:10:17;0.18;74.58
69084;SHT31;56185;48.526;9.044;2024-01-15T08:12:42;0.10;74.33
69084;SHT31;56185;48.526;9.044;2024-01-15T08:15:07;0.04;74.40
69084;SHT31;56185;48.526;9.044;2024-01-15T08:17:33;0.08;74.16
69084;SHT31;56185;48.526;9.044;2024-01-15T08:19:58;0.04;73.55
69084;SHT31;56185;48.526;9.044;2024-01-15T08:22:23;0.01;73.79
69084;SHT31;56185;48.526;9.044;2024-01-15T08:24:48;0.03;74.34
69084;SHT31;56185;48.526;9.044;2024-01-15T08:27:14;0.14;73.77
69084;SHT31;56185;48.526;9.044;2024-01-15T08:29:39;0.25;73.16
69084;SHT31;56185;48.526;9.044;2024-01-15T08:32:04;0.24;72.97
69084;SHT31;56185;48.526;9.044;2024-01-15T08:34:30;0.22;72.86
69084;SHT31;56185;48.526;9.044;2024-01-15T08:36:55;0.27;72.69
69084;SHT31;56185;48.526;9.044;2024-01-15T08:39:20;0.28;72.09
69084;SHT31;56185;48.526;9.044;2024-01-15T08:41:45;0.32;71.49
69084;SHT31;56185;48.526;9.044;2024-01-15T08:44:11;0.24;71.76
69084;SHT31;56185;48.526;9.044;2024-01-15T08:46:36;0.27;71.72
69084;SHT31;56185;48.526;9.044;2024-01-15T08:49:01;0.37;71.84
69084;SHT31;56185;48.526;9.044;2024-01-15T08:51:26;0.37;72.05
69084;SHT31;56185;48.526;9.044;2024-01-15T08:53:52;0.48;71.72
69084;SHT31;56185;48.526;9.044;2024-01-15T08:56:17;0.52;71.22
69084;SHT31;56185;48.526;9.044;2024-01-15T08:58:42;0.61;71.61
69084;SHT31;56185;48.526;9.044;2024-01-15T09:01:07;0.54;71.51
69084;SHT31;56185;48.526;9.044;2024-01-15T09:03:33;0.48;71.05
69084;SHT31;56185;48.526;9.044;2024-01-15T09:05:58;0.47;70.97
69084;SHT31;56185;48.526;9.044;2024-01-15T09:08:23;0.51;70.97
69084;SHT31;56185;48.526;9.044;2024-01-15T09:10:48;0.51;71.21
69084;SHT31;56185;48.526;9.044;2024-01-15T09:13:14;0.51;71.46
69084;SHT31;56185;48.526;9.044;2024-01-15T09:15:39;0.51;71.44
69084;SHT31;56185;48.526;9.044;2024-01-15T09:18:04;0.55;70.77
69084;SHT31;56185;48.526;9.044;2024-01-15T09:20:30;0.52;70.96
69084;SHT31;56185;48.526;9.044;2024-01-15T09:22:55;0.58;70.85
69084;SHT31;56185;48.526;9.044;2024-01-15T09:25:20;0.62;70.87
69084;SHT31;56185;48.526;9.044;2024-01-15T09:27:45;0.66;70.57
69084;SHT31;56185;48.526;9.044;2024-01-15T09:30:11;0.65;70.86
69084;SHT31;56185;48.526;9.044;2024-01-15T09:32:36;0.69;71.33
69084;SHT31;56185;48.526;9.044;2024-01-15T09:35:02;0.80;70.92
69084;SHT31;56185;48.526;9.044;2024-01-15T09:37:27;0.85;70.04
69084;SHT31;56185;48.526;9.044;2024-01-15T09:39:52;0.89;69.81
69084;SHT31;56185;48.526;9.044;2024-01-15T09:42:18;0.95;70.14
69084;SHT31;56185;48.526;9.044;2024-01-15T09:44:44;0.99;69.90
69084;SHT31;56185;48.526;9.044;2024-01-15T09:47:09;1.01;70.14
69084;SHT31;56185;48.526;9.044;2024-01-15T09:49:35;1.09;69.56
69084;SHT31;56185;48.526;9.044;2024-01-15T09:52:01;1.07;69.73
69084;SHT31;56185;48.526;9.044;2024-01-15T09:54:27;1.10;69.82
69084;SHT31;56185;48.526;9.044;2024-01-15T09:56:53;1.16;69.06
69084;SHT31;56185;48.526;9.044;2024-01-15T09:59:20;1.27;68.95
69084;SHT31;56185;48.526;9.044;2024-01-15T10:01:45;1.23;68.42
69084;SHT31;56185;48.526;9.044;2024-01-15T10:04:11;1.19;68.28
69084;SHT31;56185;48.526;9.044;2024-01-15T10:06:37;1.26;67.91
69084;SHT31;56185;48.526;9.044;2024-01-15T10:09:02;1.28;67.98
69084;SHT31;56185;48.526;9.044;2024-01-15T10:11:28;1.33;67.64
69084;SHT31;56185;48.526;9.044;2024-01-15T10:13:53;1.36;67.24
69084;SHT31;56185;48.526;9.044;2024-01-15T10:16:19;1.22;67.44
69084;SHT31;56185;48.526;9.044;2024-01-15T10:18:45;1.43;67.18
69084;SHT31;56185;48.526;9.044;2024-01-15T10:21:10;1.33;67.63
69084;SHT31;56185;48.526;9.044;2024-01-15T10:23:35;1.47;67.13
69084;SHT31;56185;48.526;9.044;2024-01-15T10:26:01;1.44;67.67
69084;SHT31;56185;48.526;9.044;2024-01-15T10:28:27;1.43;67.89
69084;SHT31;56185;48.526;9.044;2024-01-15T10:30:54;1.59;66.93
69084;SHT31;56185;48.526;9.044;2024-01-15T10:33:22;1.62;67.24
69084;SHT31;56185;48.526;9.044;2024-01-15T10:35:47;1.59;66.78
69084;SHT31;56185;48.526;9.044;2024-01-15T10:38:12;1.54;67.67
69084;SHT31;56185;48.526;9.044;2024-01-15T10:40:38;1.58;67.30
69084;SHT31;56185;48.526;9.044;2024-01-15T10:43:03;1.51;67.17
69084;SHT31;56185;48.526;9.044;2024-01-15T10:45:29;1.52;67.74
69084;SHT31;56185;48.526;9.044;2024-01-15T10:47:54;1.64;67.34
69084;SHT31;56185;48.526;9.044;2024-01-15T10:50:20;1.65;67.56
69084;SHT31;56185;48.526;9.044;2024-01-15T10:52:45;1.54;67.62
69084;SHT31;56185;48.526;9.044;2024-01-15T10:55:10;1.58;67.39
69084;SHT31;56185;48.526;9.044;2024-01-15T10:57:39;1.57;67.50
69084;SHT31;56185;48.526;9.044;2024-01-15T11:00:05;1.54;67.73
69084;SHT31;56185;48.526;9.044;2024-01-15T11:02:32;1.58;67.59
69084;SHT31;56185;48.526;9.044;2024-01-15T11:04:59;1.55;68.35
69084;SHT31;56185;48.526;9.044;2024-01-15T11:07:24;1.43;68.34
69084;SHT31;56185;48.526;9.044;2024-01-15T11:09:50;1.47;68.11
69084;SHT31;56185;48.526;9.044;2024-01-15T11:12:16;1.43;68.31
69084;SHT31;56185;48.526;9.044;2024-01-15T11:14:46;1.34;69.03
69084;SHT31;56185;48.526;9.044;2024-01-15T11:17:12;1.44;69.21
69084;SHT31;56185;48.526;9.044;2024-01-15T11:19:42;1.44;69.34
69084;SHT31;56185;48.526;9.044;2024-01-15T11:22:11;1.44;69.91
69084;SHT31;56185;48.526;9.044;2024-01-15T11:24:54;1.37;69.99
69084;SHT31;56185;48.526;9.044;2024-01-15T11:27:42;1.46;70.11
69084;SHT31;56185;48.526;9.044;2024-01-15T11:30:09;1.47;70.52
69084;SHT31;56185;48.526;9.044;2024-01-15T11:32:34;1.33;70.68
69084;SHT31;56185;48.526;9.044;2024-01-15T11:35:01;1.43;71.12
69084;SHT31;56185;48.526;9.044;2024-01-15T11:37:56;1.31;71.23
69084;SHT31;56185;48.526;9.044;2024-01-15T11:40:12;1.36;71.72
69084;SHT31;56185;48.526;9.044;2024-01-15T11:42:37;1.24;72.44
69084;SHT31;56185;48.526;9.044;2024-01-15T11:45:03;1.24;73.32
69084;SHT31;56185;48.526;9.044;2024-01-15T11:50:31;1.28;74.80
69084;SHT31;56185;48.526;9.044;2024-01-15T11:53:00;1.22;75.16
69084;SHT31;56185;48.526;9.044;2024-01-15T11:55:39;1.34;75.06
69084;SHT31;56185;48.526;9.044;2024-01-15T11:58:10;1.31;74.88
69084;SHT31;56185;48.526;9.044;2024-01-15T12:00:54;1.34;74.62
69084;SHT31;56185;48.526;9.044;2024-01-15T12:03:23;1.24;74.89
69084;SHT31;56185;48.526;9.044;2024-01-15T12:05:49;1.36;74.62
69084;SHT31;56185;48.526;9.044;2024-01-15T12:08:14;1.41;74.87
69084;SHT31;56185;48.526;9.044;2024-01-15T12:11:00;1.40;74.98
69084;SHT31;56185;48.526;9.044;2024-01-15T12:13:26;1.41;74.20
69084;SHT31;56185;48.526;9.044;2024-01-15T12:15:54;1.47;73.73
69084;SHT31;56185;48.526;9.044;2024-01-15T12:18:19;1.51;73.95
69084;SHT31;56185;48.526;9.044;2024-01-15T12:20:45;1.40;73.99
69084;SHT31;56185;48.526;9.044;2024-01-15T12:23:10;1.47;74.61
69084;SHT31;56185;48.526;9.044;2024-01-15T12:25:36;1.41;74.38
69084;SHT31;56185;48.526;9.044;2024-01-15T12:28:02;1.41;74.97
69084;SHT31;56185;48.526;9.044;2024-01-15T12:30:28;1.46;74.74
69084;SHT31;56185;48.526;9.044;2024-01-15T12:32:54;1.46;74.62
69084;SHT31;56185;48.526;9.044;2024-01-15T12:35:19;1.41;74.59
69084;SHT31;56185;48.526;9.044;2024-01-15T12:37:44;1.28;75.32
69084;SHT31;56185;48.526;9.044;2024-01-15T12:40:18;1.34;76.73
69084;SHT31;56185;48.526;9.044;2024-01-15T12:42:43;1.33;78.07
69084;SHT31;56185;48.526;9.044;2024-01-15T12:45:11;1.16;78.92
69084;SHT31;56185;48.526;9.044;2024-01-15T12:47:37;1.15;79.06
69084;SHT31;56185;48.526;9.044;2024-01-15T12:50:05;1.17;78.85
69084;SHT31;56185;48.526;9.044;2024-01-15T12:52:31;1.19;79.37
69084;SHT31;56185;48.526;9.044;2024-01-15T12:54:57;1.17;79.52
69084;SHT31;56185;48.526;9.044;2024-01-15T12:57:22;1.22;78.84
69084;SHT31;56185;48.526;9.044;2024-01-15T12:59:48;1.15;79.53
69084;SHT31;56185;48.526;9.044;2024-01-15T13:02:14;1.27;79.44
69084;SHT31;56185;48.526;9.044;2024-01-15T13:04:39;1.12;80.50
69084;SHT31;56185;48.526;9.044;2024-01-15T13:07:11;1.07;80.85
69084;SHT31;56185;48.526;9.044;2024-01-15T13:09:36;1.15;81.03
69084;SHT31;56185;48.526;9.044;2024-01-15T13:12:05;1.16;81.03
69084;SHT31;56185;48.526;9.044;2024-01-15T13:14:30;1.13;80.90
69084;SHT31;56185;48.526;9.044;2024-01-15T13:16:55;1.15;80.90
69084;SHT31;56185;48.526;9.044;2024-01-15T13:19:21;1.23;81.22
69084;SHT31;56185;48.526;9.044;2024-01-15T13:21:47;1.19;81.51
69084;SHT31;56185;48.526;9.044;2024-01-15T13:24:12;1.22;82.26
69084;SHT31;56185;48.526;9.044;2024-01-15T13:26:37;1.23;82.81
69084;SHT31;56185;48.526;9.044;2024-01-15T13:29:03;1.15;83.57
69084;SHT31;56185;48.526;9.044;2024-01-15T13:31:29;1.10;83.42
69084;SHT31;56185;48.526;9.044;2024-01-15T13:33:54;1.00;83.99
69084;SHT31;56185;48.526;9.044;2024-01-15T13:36:20;1.09;83.84
69084;SHT31;56185;48.526;9.044;2024-01-15T13:38:45;1.07;84.10
69084;SHT31;56185;48.526;9.044;2024-01-15T13:41:10;0.99;85.08
69084;SHT31;56185;48.526;9.044;2024-01-15T13:43:35;0.85;86.00
69084;SHT31;56185;48.526;9.044;2024-01-15T13:46:01;0.72;86.95
69084;SHT31;56185;48.526;9.044;2024-01-15T13:48:26;0.72;86.58
69084;SHT31;56185;48.526;9.044;2024-01-15T13:50:52;0.76;86.66
69084;SHT31;56185;48.526;9.044;2024-01-15T13:53:18;0.85;86.43
69084;SHT31;56185;48.526;9.044;2024-01-15T13:55:43;0.83;86.63
69084;SHT31;56185;48.526;9.044;2024-01-15T13:58:08;0.92;86.03
69084;SHT31;56185;48.526;9.044;2024-01-15T14:00:36;0.96;86.47
69084;SHT31;56185;48.526;9.044;2024-01-15T14:03:02;1.03;85.93
69084;SHT31;56185;48.526;9.044;2024-01-15T14:05:27;0.86;86.51
69084;SHT31;56185;48.526;9.044;2024-01-15T14:07:52;0.83;86.96
69084;SHT31;56185;48.526;9.044;2024-01-15T14:10:17;0.90;87.03
69084;SHT31;56185;48.526;9.044;2024-01-15T14:12:43;0.99;86.95
69084;SHT31;56185;48.526;9.044;2024-01-15T14:15:08;0.97;87.19
69084;SHT31;56185;48.526;9.044;2024-01-15T14:17:33;0.96;87.00
69084;SHT31;56185;48.526;9.044;2024-01-15T14:19:59;0.90;87.46
69084;SHT31;56185;48.526;9.044;2024-01-15T14:22:24;0.82;87.73
69084;SHT31;56185;48.526;9.044;2024-01-15T14:24:49;0.78;87.92
69084;SHT31;56185;48.526;9.044;2024-01-15T14:27:14;0.86;87.81
69084;SHT31;56185;48.526;9.044;2024-01-15T14:29:40;0.75;87.96
69084;SHT31;56185;48.526;9.044;2024-01-15T14:32:05;0.90;87.66
69084;SHT31;56185;48.526;9.044;2024-01-15T14:34:30;0.89;87.48
69084;SHT31;56185;48.526;9.044;2024-01-15T14:36:55;0.82;88.16
69084;SHT31;56185;48.526;9.044;2024-01-15T14:39:21;0.86;88.13
69084;SHT31;56185;48.526;9.044;2024-01-15T14:41:47;0.96;87.57
69084;SHT31;56185;48.526;9.044;2024-01-15T14:44:13;0.86;88.34
69084;SHT31;56185;48.526;9.044;2024-01-15T14:46:38;0.93;87.78
69084;SHT31;56185;48.526;9.044;2024-01-15T14:49:04;0.76;88.50
69084;SHT31;56185;48.526;9.044;2024-01-15T14:51:29;0.95;88.13
69084;SHT31;56185;48.526;9.044;2024-01-15T14:53:54;0.75;88.98
69084;SHT31;56185;48.526;9.044;2024-01-15T14:56:20;0.75;88.83
69084;SHT31;56185;48.526;9.044;2024-01-15T14:58:45;0.85;88.65
69084;SHT31;56185;48.526;9.044;2024-01-15T15:01:10;0.72;89.05
69084;SHT31;56185;48.526;9.044;2024-01-15T15:03:35;0.70;89.37
69084;SHT31;56185;48.526;9.044;2024-01-15T15:06:01;0.76;88.79
69084;SHT31;56185;48.526;9.044;2024-01-15T15:08:26;0.76;88.64
69084;SHT31;56185;48.526;9.044;2024-01-15T15:10:51;0.73;88.66
69084;SHT31;56185;48.526;9.044;2024-01-15T15:13:17;0.80;88.17
69084;SHT31;56185;48.526;9.044;2024-01-15T15:15:42;0.69;87.98
69084;SHT31;56185;48.526;9.044;2024-01-15T15:18:07;0.82;87.39
69084;SHT31;56185;48.526;9.044;2024-01-15T15:20:32;0.86;87.35
69084;SHT31;56185;48.526;9.044;2024-01-15T15:22:58;0.65;87.22
69084;SHT31;56185;48.526;9.044;2024-01-15T15:25:23;0.79;86.95
69084;SHT31;56185;48.526;9.044;2024-01-15T15:28:12;0.78;86.79
69084;SHT31;56185;48.526;9.044;2024-01-15T15:30:46;0.89;86.23